sensor_id;sensor_type;location;lat;lon;timestamp;temperature;humidity
1650;DHT22;822;53.670;8.676;2023-05-20T00:00:21;11.50;81.70
1650;DHT22;822;53.670;8.676;2023-05-20T00:02:48;11.40;81.90
1650;DHT22;822;53.670;8.676;2023-05-20T00:05:15;11.40;81.80
1650;DHT22;822;53.670;8.676;2023-05-20T00:07:44;11.30;81.90
1650;DHT22;822;53.670;8.676;2023-05-20T00:10:12;11.20;82.10
1650;DHT22;822;53.670;8.676;2023-05-20T00:12:39;11.20;82.20
1650;DHT22;822;53.670;8.676;2023-05-20T00:15:07;11.10;82.20
1650;DHT22;822;53.670;8.676;2023-05-20T00:17:36;11.10;82.30
1650;DHT22;822;53.670;8.676;2023-05-20T00:20:04;11.00;82.40
1650;DHT22;822;53.670;8.676;2023-05-20T00:22:32;10.90;82.50
1650;DHT22;822;53.670;8.676;2023-05-20T00:25:01;10.90;82.60
1650;DHT22;822;53.670;8.676;2023-05-20T00:27:28;10.90;82.60
1650;DHT22;822;53.670;8.676;2023-05-20T00:29:55;10.80;82.60
1650;DHT22;822;53.670;8.676;2023-05-20T00:32:23;10.80;82.70
1650;DHT22;822;53.670;8.676;2023-05-20T00:34:57;10.70;82.70
1650;DHT22;822;53.670;8.676;2023-05-20T00:37:25;10.70;82.80
1650;DHT22;822;53.670;8.676;2023-05-20T00:39:54;10.70;82.90
1650;DHT22;822;53.670;8.676;2023-05-20T00:42:24;10.60;82.90
1650;DHT22;822;53.670;8.676;2023-05-20T00:44:52;10.60;83.00
1650;DHT22;822;53.670;8.676;2023-05-20T00:47:24;10.50;83.00
1650;DHT22;822;53.670;8.676;2023-05-20T00:49:52;10.50;83.20
1650;DHT22;822;53.670;8.676;2023-05-20T00:52:20;10.50;83.10
1650;DHT22;822;53.670;8.676;2023-05-20T00:54:48;10.40;83.20
1650;DHT22;822;53.670;8.676;2023-05-20T00:57:16;10.40;83.40
1650;DHT22;822;53.670;8.676;2023-05-20T00:59:46;10.30;83.40
1650;DHT22;822;53.670;8.676;2023-05-20T01:02:14;10.30;83.50
1650;DHT22;822;53.670;8.676;2023-05-20T01:04:42;10.30;83.50
1650;DHT22;822;53.670;8.676;2023-05-20T01:07:14;10.20;83.60
1650;DHT22;822;53.670;8.676;2023-05-20T01:09:42;10.20;83.60
1650;DHT22;822;53.670;8.676;2023-05-20T01:12:14;10.10;83.70
1650;DHT22;822;53.670;8.676;2023-05-20T01:14:46;10.10;83.70
1650;DHT22;822;53.670;8.676;2023-05-20T01:17:16;10.10;83.80
1650;DHT22;822;53.670;8.676;2023-05-20T01:19:46;10.10;83.90
1650;DHT22;822;53.670;8.676;2023-05-20T01:22:14;10.00;84.00
1650;DHT22;822;53.670;8.676;2023-05-20T01:24:44;10.00;84.10
1650;DHT22;822;53.670;8.676;2023-05-20T01:27:14;10.00;84.20
1650;DHT22;822;53.670;8.676;2023-05-20T01:29:42;9.90;84.20
1650;DHT22;822;53.670;8.676;2023-05-20T01:32:14;9.90;84.30
1650;DHT22;822;53.670;8.676;2023-05-20T01:34:42;9.90;84.30
1650;DHT22;822;53.670;8.676;2023-05-20T01:37:10;9.80;84.50
1650;DHT22;822;53.670;8.676;2023-05-20T01:39:39;9.80;84.70
1650;DHT22;822;53.670;8.676;2023-05-20T01:42:09;9.80;85.00
1650;DHT22;822;53.670;8.676;2023-05-20T01:44:43;9.70;85.00
1650;DHT22;822;53.670;8.676;2023-05-20T01:47:10;9.70;85.20
1650;DHT22;822;53.670;8.676;2023-05-20T01:49:37;9.70;85.30
1650;DHT22;822;53.670;8.676;2023-05-20T01:52:05;9.70;85.50
1650;DHT22;822;53.670;8.676;2023-05-20T01:54:32;9.70;85.50
1650;DHT22;822;53.670;8.676;2023-05-20T01:56:59;9.60;85.70
1650;DHT22;822;53.670;8.676;2023-05-20T01:59:32;9.60;85.70
1650;DHT22;822;53.670;8.676;2023-05-20T02:01:59;9.60;85.80
1650;DHT22;822;53.670;8.676;2023-05-20T02:04:26;9.60;85.80
1650;DHT22;822;53.670;8.676;2023-05-20T02:06:53;9.60;85.80
1650;DHT22;822;53.670;8.676;2023-05-20T02:09:20;9.60;86.10
1650;DHT22;822;53.670;8.676;2023-05-20T02:11:49;9.50;86.10
1650;DHT22;822;53.670;8.676;2023-05-20T02:14:16;9.50;86.30
1650;DHT22;822;53.670;8.676;2023-05-20T02:16:45;9.50;86.30
1650;DHT22;822;53.670;8.676;2023-05-20T02:19:12;9.50;86.30
1650;DHT22;822;53.670;8.676;2023-05-20T02:21:44;9.50;86.40
1650;DHT22;822;53.670;8.676;2023-05-20T02:24:13;9.40;86.50
1650;DHT22;822;53.670;8.676;2023-05-20T02:26:45;9.40;86.70
1650;DHT22;822;53.670;8.676;2023-05-20T02:29:14;9.40;86.80
1650;DHT22;822;53.670;8.676;2023-05-20T02:31:41;9.30;86.90
1650;DHT22;822;53.670;8.676;2023-05-20T02:34:09;9.30;87.00
1650;DHT22;822;53.670;8.676;2023-05-20T02:36:36;9.30;87.10
1650;DHT22;822;53.670;8.676;2023-05-20T02:39:03;9.30;87.20
1650;DHT22;822;53.670;8.676;2023-05-20T02:41:31;9.30;87.30
1650;DHT22;822;53.670;8.676;2023-05-20T02:43:58;9.30;87.30
1650;DHT22;822;53.670;8.676;2023-05-20T02:46:25;9.20;87.40
1650;DHT22;822;53.670;8.676;2023-05-20T02:48:52;9.20;87.40
1650;DHT22;822;53.670;8.676;2023-05-20T02:51:21;9.20;87.50
1650;DHT22;822;53.670;8.676;2023-05-20T02:53:48;9.20;87.60
1650;DHT22;822;53.670;8.676;2023-05-20T02:56:15;9.10;87.70
1650;DHT22;822;53.670;8.676;2023-05-20T02:58:46;9.10;87.80
1650;DHT22;822;53.670;8.676;2023-05-20T03:01:13;9.10;87.80
1650;DHT22;822;53.670;8.676;2023-05-20T03:03:41;9.10;87.80
1650;DHT22;822;53.670;8.676;2023-05-20T03:06:08;9.10;87.70
1650;DHT22;822;53.670;8.676;2023-05-20T03:08:37;9.10;87.80
1650;DHT22;822;53.670;8.676;2023-05-20T03:11:07;9.00;87.90
1650;DHT22;822;53.670;8.676;2023-05-20T03:13:34;9.00;88.00
1650;DHT22;822;53.670;8.676;2023-05-20T03:16:01;9.00;88.00
1650;DHT22;822;53.670;8.676;2023-05-20T03:18:28;9.00;88.10
1650;DHT22;822;53.670;8.676;2023-05-20T03:20:56;8.90;88.20
1650;DHT22;822;53.670;8.676;2023-05-20T03:23:26;8.90;88.30
1650;DHT22;822;53.670;8.676;2023-05-20T03:25:54;8.90;88.40
1650;DHT22;822;53.670;8.676;2023-05-20T03:28:21;8.90;88.30
1650;DHT22;822;53.670;8.676;2023-05-20T03:30:49;8.80;88.40
1650;DHT22;822;53.670;8.676;2023-05-20T03:33:16;8.80;88.60
1650;DHT22;822;53.670;8.676;2023-05-20T03:35:43;8.80;88.60
1650;DHT22;822;53.670;8.676;2023-05-20T03:38:10;8.80;88.70
1650;DHT22;822;53.670;8.676;2023-05-20T03:40:38;8.80;88.70
1650;DHT22;822;53.670;8.676;2023-05-20T03:43:06;8.80;88.80
1650;DHT22;822;53.670;8.676;2023-05-20T03:45:34;8.70;88.70
1650;DHT22;822;53.670;8.676;2023-05-20T03:48:01;8.70;88.80
1650;DHT22;822;53.670;8.676;2023-05-20T03:50:29;8.70;88.90
1650;DHT22;822;53.670;8.676;2023-05-20T03:52:56;8.70;88.90
1650;DHT22;822;53.670;8.676;2023-05-20T03:55:23;8.70;89.00
1650;DHT22;822;53.670;8.676;2023-05-20T03:57:50;8.70;89.00
1650;DHT22;822;53.670;8.676;2023-05-20T04:00:19;8.70;88.90
1650;DHT22;822;53.670;8.676;2023-05-20T04:02:46;8.70;88.90
1650;DHT22;822;53.670;8.676;2023-05-20T04:05:13;8.70;88.90
1650;DHT22;822;53.670;8.676;2023-05-20T04:07:40;8.70;88.90
1650;DHT22;822;53.670;8.676;2023-05-20T04:10:08;8.70;88.90
1650;DHT22;822;53.670;8.676;2023-05-20T04:12:36;8.70;88.90
1650;DHT22;822;53.670;8.676;2023-05-20T04:15:04;8.70;89.00
1650;DHT22;822;53.670;8.676;2023-05-20T04:17:33;8.70;88.90
1650;DHT22;822;53.670;8.676;2023-05-20T04:20:03;8.60;89.00
1650;DHT22;822;53.670;8.676;2023-05-20T04:22:32;8.70;89.10
1650;DHT22;822;53.670;8.676;2023-05-20T04:24:59;8.70;89.20
1650;DHT22;822;53.670;8.676;2023-05-20T04:27:28;8.70;89.20
1650;DHT22;822;53.670;8.676;2023-05-20T04:29:56;8.80;89.10
1650;DHT22;822;53.670;8.676;2023-05-20T04:32:23;8.90;89.20
1650;DHT22;822;53.670;8.676;2023-05-20T04:34:52;8.90;89.00
1650;DHT22;822;53.670;8.676;2023-05-20T04:37:23;8.90;88.70
1650;DHT22;822;53.670;8.676;2023-05-20T04:39:51;9.00;88.60
1650;DHT22;822;53.670;8.676;2023-05-20T04:42:18;9.10;88.70
1650;DHT22;822;53.670;8.676;2023-05-20T04:44:46;9.10;88.30
1650;DHT22;822;53.670;8.676;2023-05-20T04:47:14;9.20;88.00
1650;DHT22;822;53.670;8.676;2023-05-20T04:49:41;9.30;87.50
1650;DHT22;822;53.670;8.676;2023-05-20T04:52:10;9.30;87.20
1650;DHT22;822;53.670;8.676;2023-05-20T04:54:37;9.40;87.30
1650;DHT22;822;53.670;8.676;2023-05-20T04:57:04;9.40;87.10
1650;DHT22;822;53.670;8.676;2023-05-20T04:59:32;9.50;87.00
1650;DHT22;822;53.670;8.676;2023-05-20T05:01:59;9.60;86.70
1650;DHT22;822;53.670;8.676;2023-05-20T05:04:31;9.70;86.70
1650;DHT22;822;53.670;8.676;2023-05-20T05:06:58;9.80;86.30
1650;DHT22;822;53.670;8.676;2023-05-20T05:09:27;9.90;85.80
1650;DHT22;822;53.670;8.676;2023-05-20T05:11:54;10.10;84.60
1650;DHT22;822;53.670;8.676;2023-05-20T05:14:21;10.30;84.70
1650;DHT22;822;53.670;8.676;2023-05-20T05:16:48;10.30;84.80
1650;DHT22;822;53.670;8.676;2023-05-20T05:19:16;10.50;84.70
1650;DHT22;822;53.670;8.676;2023-05-20T05:21:43;10.50;84.20
1650;DHT22;822;53.670;8.676;2023-05-20T05:24:10;10.70;84.80
1650;DHT22;822;53.670;8.676;2023-05-20T05:26:38;10.70;84.50
1650;DHT22;822;53.670;8.676;2023-05-20T05:29:06;10.90;84.10
1650;DHT22;822;53.670;8.676;2023-05-20T05:31:33;11.00;83.90
1650;DHT22;822;53.670;8.676;2023-05-20T05:34:00;11.00;84.10
1650;DHT22;822;53.670;8.676;2023-05-20T05:36:27;11.10;84.40
1650;DHT22;822;53.670;8.676;2023-05-20T05:38:54;11.20;83.70
1650;DHT22;822;53.670;8.676;2023-05-20T05:41:22;11.30;83.40
1650;DHT22;822;53.670;8.676;2023-05-20T05:43:51;11.40;83.00
1650;DHT22;822;53.670;8.676;2023-05-20T05:46:18;11.50;82.50
1650;DHT22;822;53.670;8.676;2023-05-20T05:48:46;11.50;82.50
1650;DHT22;822;53.670;8.676;2023-05-20T05:51:15;11.60;82.60
1650;DHT22;822;53.670;8.676;2023-05-20T05:53:42;11.70;82.60
1650;DHT22;822;53.670;8.676;2023-05-20T05:56:09;11.80;82.20
1650;DHT22;822;53.670;8.676;2023-05-20T05:58:37;11.80;81.70
1650;DHT22;822;53.670;8.676;2023-05-20T06:01:06;11.90;81.80
1650;DHT22;822;53.670;8.676;2023-05-20T06:03:33;11.90;82.20
1650;DHT22;822;53.670;8.676;2023-05-20T06:06:00;12.00;82.40
1650;DHT22;822;53.670;8.676;2023-05-20T06:08:27;12.10;82.80
1650;DHT22;822;53.670;8.676;2023-05-20T06:10:55;12.10;82.40
1650;DHT22;822;53.670;8.676;2023-05-20T06:13:22;12.20;82.10
1650;DHT22;822;53.670;8.676;2023-05-20T06:15:49;12.30;82.20
1650;DHT22;822;53.670;8.676;2023-05-20T06:18:18;12.40;81.80
1650;DHT22;822;53.670;8.676;2023-05-20T06:20:45;12.40;81.20
1650;DHT22;822;53.670;8.676;2023-05-20T06:23:12;12.40;81.70
1650;DHT22;822;53.670;8.676;2023-05-20T06:25:39;12.60;81.80
1650;DHT22;822;53.670;8.676;2023-05-20T06:28:07;12.60;81.60
1650;DHT22;822;53.670;8.676;2023-05-20T06:30:34;12.70;81.60
1650;DHT22;822;53.670;8.676;2023-05-20T06:33:01;12.80;82.60
1650;DHT22;822;53.670;8.676;2023-05-20T06:35:30;12.90;81.80
1650;DHT22;822;53.670;8.676;2023-05-20T06:37:59;13.00;81.20
1650;DHT22;822;53.670;8.676;2023-05-20T06:40:27;13.00;80.20
1650;DHT22;822;53.670;8.676;2023-05-20T06:42:54;13.10;80.30
1650;DHT22;822;53.670;8.676;2023-05-20T06:45:24;13.20;80.00
1650;DHT22;822;53.670;8.676;2023-05-20T06:47:51;13.30;80.00
1650;DHT22;822;53.670;8.676;2023-05-20T06:50:19;13.30;79.20
1650;DHT22;822;53.670;8.676;2023-05-20T06:52:47;13.40;79.60
1650;DHT22;822;53.670;8.676;2023-05-20T06:55:18;13.50;79.10
1650;DHT22;822;53.670;8.676;2023-05-20T06:57:45;13.50;79.70
1650;DHT22;822;53.670;8.676;2023-05-20T07:00:12;13.60;79.50
1650;DHT22;822;53.670;8.676;2023-05-20T07:02:40;13.70;79.10
1650;DHT22;822;53.670;8.676;2023-05-20T07:05:08;13.70;79.30
1650;DHT22;822;53.670;8.676;2023-05-20T07:07:35;13.80;79.10
1650;DHT22;822;53.670;8.676;2023-05-20T07:10:05;13.80;78.50
1650;DHT22;822;53.670;8.676;2023-05-20T07:12:32;13.90;78.80
1650;DHT22;822;53.670;8.676;2023-05-20T07:15:00;14.00;78.80
1650;DHT22;822;53.670;8.676;2023-05-20T07:17:27;14.10;78.80
1650;DHT22;822;53.670;8.676;2023-05-20T07:19:55;14.20;78.50
1650;DHT22;822;53.670;8.676;2023-05-20T07:22:22;14.30;78.20
1650;DHT22;822;53.670;8.676;2023-05-20T07:24:49;14.40;78.40
1650;DHT22;822;53.670;8.676;2023-05-20T07:27:18;14.50;79.20
1650;DHT22;822;53.670;8.676;2023-05-20T07:29:45;14.60;77.60
1650;DHT22;822;53.670;8.676;2023-05-20T07:32:12;14.70;77.10
1650;DHT22;822;53.670;8.676;2023-05-20T07:34:39;14.80;77.30
1650;DHT22;822;53.670;8.676;2023-05-20T07:37:06;14.90;75.60
1650;DHT22;822;53.670;8.676;2023-05-20T07:39:34;15.00;76.30
1650;DHT22;822;53.670;8.676;2023-05-20T07:42:05;15.10;76.20
1650;DHT22;822;53.670;8.676;2023-05-20T07:44:33;15.30;75.50
1650;DHT22;822;53.670;8.676;2023-05-20T07:47:04;15.30;75.10
1650;DHT22;822;53.670;8.676;2023-05-20T07:49:31;15.50;74.90
1650;DHT22;822;53.670;8.676;2023-05-20T07:51:58;15.60;74.30
1650;DHT22;822;53.670;8.676;2023-05-20T07:54:25;15.70;74.00
1650;DHT22;822;53.670;8.676;2023-05-20T07:56:52;15.80;73.00
1650;DHT22;822;53.670;8.676;2023-05-20T07:59:20;15.80;72.70
1650;DHT22;822;53.670;8.676;2023-05-20T08:01:49;15.90;72.20
1650;DHT22;822;53.670;8.676;2023-05-20T08:04:16;15.90;72.80
1650;DHT22;822;53.670;8.676;2023-05-20T08:06:43;16.00;72.20
1650;DHT22;822;53.670;8.676;2023-05-20T08:09:11;16.10;71.90
1650;DHT22;822;53.670;8.676;2023-05-20T08:11:38;16.20;70.40
1650;DHT22;822;53.670;8.676;2023-05-20T08:14:06;16.20;69.90
1650;DHT22;822;53.670;8.676;2023-05-20T08:16:34;16.30;70.80
1650;DHT22;822;53.670;8.676;2023-05-20T08:19:03;16.40;70.30
1650;DHT22;822;53.670;8.676;2023-05-20T08:21:30;16.50;69.80
1650;DHT22;822;53.670;8.676;2023-05-20T08:23:58;16.50;69.70
1650;DHT22;822;53.670;8.676;2023-05-20T08:26:25;16.70;71.00
1650;DHT22;822;53.670;8.676;2023-05-20T08:28:52;16.80;71.20
1650;DHT22;822;53.670;8.676;2023-05-20T08:31:21;16.90;68.30
1650;DHT22;822;53.670;8.676;2023-05-20T08:33:48;17.00;69.10
1650;DHT22;822;53.670;8.676;2023-05-20T08:36:16;17.10;68.10
1650;DHT22;822;53.670;8.676;2023-05-20T08:38:44;17.20;68.80
1650;DHT22;822;53.670;8.676;2023-05-20T08:41:11;17.30;66.20
1650;DHT22;822;53.670;8.676;2023-05-20T08:43:39;17.40;66.10
1650;DHT22;822;53.670;8.676;2023-05-20T08:46:08;17.50;67.50
1650;DHT22;822;53.670;8.676;2023-05-20T08:48:36;17.60;68.70
1650;DHT22;822;53.670;8.676;2023-05-20T08:51:05;17.70;66.40
1650;DHT22;822;53.670;8.676;2023-05-20T08:53:35;17.90;65.10
1650;DHT22;822;53.670;8.676;2023-05-20T08:56:02;17.90;63.90
1650;DHT22;822;53.670;8.676;2023-05-20T08:58:30;18.00;63.10
1650;DHT22;822;53.670;8.676;2023-05-20T09:00:57;18.00;62.90
1650;DHT22;822;53.670;8.676;2023-05-20T09:03:25;18.00;62.90
1650;DHT22;822;53.670;8.676;2023-05-20T09:05:52;18.00;62.80
1650;DHT22;822;53.670;8.676;2023-05-20T09:08:23;18.00;64.00
1650;DHT22;822;53.670;8.676;2023-05-20T09:10:53;18.10;63.30
1650;DHT22;822;53.670;8.676;2023-05-20T09:13:20;18.20;62.40
1650;DHT22;822;53.670;8.676;2023-05-20T09:15:47;18.20;62.40
1650;DHT22;822;53.670;8.676;2023-05-20T09:18:14;18.40;61.50
1650;DHT22;822;53.670;8.676;2023-05-20T09:20:42;18.50;61.40
1650;DHT22;822;53.670;8.676;2023-05-20T09:23:09;18.60;60.10
1650;DHT22;822;53.670;8.676;2023-05-20T09:25:37;18.70;61.30
1650;DHT22;822;53.670;8.676;2023-05-20T09:28:06;18.80;58.50
1650;DHT22;822;53.670;8.676;2023-05-20T09:30:35;18.90;59.60
1650;DHT22;822;53.670;8.676;2023-05-20T09:33:03;19.00;59.70
1650;DHT22;822;53.670;8.676;2023-05-20T09:35:34;19.20;58.90
1650;DHT22;822;53.670;8.676;2023-05-20T09:38:04;19.30;59.80
1650;DHT22;822;53.670;8.676;2023-05-20T09:40:32;19.40;58.40
1650;DHT22;822;53.670;8.676;2023-05-20T09:43:03;19.50;55.50
1650;DHT22;822;53.670;8.676;2023-05-20T09:45:32;19.50;56.00
1650;DHT22;822;53.670;8.676;2023-05-20T09:48:01;19.40;54.20
1650;DHT22;822;53.670;8.676;2023-05-20T09:50:28;19.40;53.60
1650;DHT22;822;53.670;8.676;2023-05-20T09:52:56;19.20;53.50
1650;DHT22;822;53.670;8.676;2023-05-20T09:55:27;19.30;55.80
1650;DHT22;822;53.670;8.676;2023-05-20T09:57:55;19.30;54.70
1650;DHT22;822;53.670;8.676;2023-05-20T10:00:22;19.40;54.60
1650;DHT22;822;53.670;8.676;2023-05-20T10:02:51;19.40;54.00
1650;DHT22;822;53.670;8.676;2023-05-20T10:05:20;19.40;55.10
1650;DHT22;822;53.670;8.676;2023-05-20T10:08:15;19.40;54.10
1650;DHT22;822;53.670;8.676;2023-05-20T10:10:48;19.40;54.20
1650;DHT22;822;53.670;8.676;2023-05-20T10:13:31;19.40;54.40
1650;DHT22;822;53.670;8.676;2023-05-20T10:16:10;19.30;53.30
1650;DHT22;822;53.670;8.676;2023-05-20T10:18:51;19.20;53.80
1650;DHT22;822;53.670;8.676;2023-05-20T10:21:22;19.30;54.00
1650;DHT22;822;53.670;8.676;2023-05-20T10:23:50;19.40;54.30
1650;DHT22;822;53.670;8.676;2023-05-20T10:26:18;19.50;53.80
1650;DHT22;822;53.670;8.676;2023-05-20T10:28:46;19.60;55.20
1650;DHT22;822;53.670;8.676;2023-05-20T10:31:15;19.70;54.20
1650;DHT22;822;53.670;8.676;2023-05-20T10:33:44;19.70;54.40
1650;DHT22;822;53.670;8.676;2023-05-20T10:36:22;19.70;55.40
1650;DHT22;822;53.670;8.676;2023-05-20T10:38:52;19.90;54.90
1650;DHT22;822;53.670;8.676;2023-05-20T10:41:24;20.00;52.10
1650;DHT22;822;53.670;8.676;2023-05-20T10:43:59;19.80;52.00
1650;DHT22;822;53.670;8.676;2023-05-20T10:46:27;19.60;52.60
1650;DHT22;822;53.670;8.676;2023-05-20T10:48:56;19.60;54.50
1650;DHT22;822;53.670;8.676;2023-05-20T10:51:23;19.60;52.30
1650;DHT22;822;53.670;8.676;2023-05-20T10:53:54;19.60;53.70
1650;DHT22;822;53.670;8.676;2023-05-20T10:56:22;19.60;52.60
1650;DHT22;822;53.670;8.676;2023-05-20T10:58:51;19.60;53.30
1650;DHT22;822;53.670;8.676;2023-05-20T11:01:23;19.60;52.50
1650;DHT22;822;53.670;8.676;2023-05-20T11:03:50;19.50;52.50
1650;DHT22;822;53.670;8.676;2023-05-20T11:06:23;19.50;53.50
1650;DHT22;822;53.670;8.676;2023-05-20T11:08:51;19.50;52.60
1650;DHT22;822;53.670;8.676;2023-05-20T11:11:19;19.50;52.90
1650;DHT22;822;53.670;8.676;2023-05-20T11:13:49;19.50;54.70
1650;DHT22;822;53.670;8.676;2023-05-20T11:16:19;19.70;53.20
1650;DHT22;822;53.670;8.676;2023-05-20T11:18:47;19.80;53.80
1650;DHT22;822;53.670;8.676;2023-05-20T11:21:15;20.00;51.20
1650;DHT22;822;53.670;8.676;2023-05-20T11:23:43;20.10;52.50
1650;DHT22;822;53.670;8.676;2023-05-20T11:26:10;20.20;50.90
1650;DHT22;822;53.670;8.676;2023-05-20T11:28:37;20.30;51.50
1650;DHT22;822;53.670;8.676;2023-05-20T11:31:05;20.30;49.60
1650;DHT22;822;53.670;8.676;2023-05-20T11:33:32;20.20;49.20
1650;DHT22;822;53.670;8.676;2023-05-20T11:35:59;20.20;50.60
1650;DHT22;822;53.670;8.676;2023-05-20T11:38:29;20.20;49.80
1650;DHT22;822;53.670;8.676;2023-05-20T11:40:57;20.20;51.00
1650;DHT22;822;53.670;8.676;2023-05-20T11:43:25;20.30;51.50
1650;DHT22;822;53.670;8.676;2023-05-20T11:45:53;20.40;51.30
1650;DHT22;822;53.670;8.676;2023-05-20T11:48:22;20.40;49.30
1650;DHT22;822;53.670;8.676;2023-05-20T11:50:49;20.40;48.50
1650;DHT22;822;53.670;8.676;2023-05-20T11:53:17;20.10;48.20
1650;DHT22;822;53.670;8.676;2023-05-20T11:55:45;20.00;50.50
1650;DHT22;822;53.670;8.676;2023-05-20T11:58:17;19.90;49.80
1650;DHT22;822;53.670;8.676;2023-05-20T12:00:45;19.90;50.30
1650;DHT22;822;53.670;8.676;2023-05-20T12:03:12;19.90;49.50
1650;DHT22;822;53.670;8.676;2023-05-20T12:05:39;19.90;50.90
1650;DHT22;822;53.670;8.676;2023-05-20T12:08:07;19.80;49.30
1650;DHT22;822;53.670;8.676;2023-05-20T12:10:34;19.70;49.70
1650;DHT22;822;53.670;8.676;2023-05-20T12:13:03;19.60;49.30
1650;DHT22;822;53.670;8.676;2023-05-20T12:15:34;19.50;49.80
1650;DHT22;822;53.670;8.676;2023-05-20T12:18:02;19.40;50.20
1650;DHT22;822;53.670;8.676;2023-05-20T12:20:30;19.20;52.00
1650;DHT22;822;53.670;8.676;2023-05-20T12:22:59;19.10;52.20
1650;DHT22;822;53.670;8.676;2023-05-20T12:25:26;19.00;52.80
1650;DHT22;822;53.670;8.676;2023-05-20T12:27:54;19.00;51.80
1650;DHT22;822;53.670;8.676;2023-05-20T12:30:22;18.90;52.60
1650;DHT22;822;53.670;8.676;2023-05-20T12:32:51;18.80;53.10
1650;DHT22;822;53.670;8.676;2023-05-20T12:35:25;18.70;53.20
1650;DHT22;822;53.670;8.676;2023-05-20T12:38:02;18.60;54.30
1650;DHT22;822;53.670;8.676;2023-05-20T12:40:29;18.50;53.90
1650;DHT22;822;53.670;8.676;2023-05-20T12:42:56;18.50;53.40
1650;DHT22;822;53.670;8.676;2023-05-20T12:45:23;18.40;54.10
1650;DHT22;822;53.670;8.676;2023-05-20T12:47:52;18.40;53.90
1650;DHT22;822;53.670;8.676;2023-05-20T12:50:19;18.40;53.90
1650;DHT22;822;53.670;8.676;2023-05-20T12:52:46;18.30;53.60
1650;DHT22;822;53.670;8.676;2023-05-20T12:55:14;18.20;53.80
1650;DHT22;822;53.670;8.676;2023-05-20T12:57:42;18.10;54.20
1650;DHT22;822;53.670;8.676;2023-05-20T13:00:11;18.10;55.10
1650;DHT22;822;53.670;8.676;2023-05-20T13:02:39;18.00;56.00
1650;DHT22;822;53.670;8.676;2023-05-20T13:05:09;18.00;56.50
1650;DHT22;822;53.670;8.676;2023-05-20T13:07:36;18.00;57.10
1650;DHT22;822;53.670;8.676;2023-05-20T13:10:04;18.00;56.70
1650;DHT22;822;53.670;8.676;2023-05-20T13:12:33;18.10;56.90
1650;DHT22;822;53.670;8.676;2023-05-20T13:15:00;18.00;56.20
1650;DHT22;822;53.670;8.676;2023-05-20T13:17:27;18.10;57.00
1650;DHT22;822;53.670;8.676;2023-05-20T13:19:55;18.20;58.30
1650;DHT22;822;53.670;8.676;2023-05-20T13:22:23;18.30;57.60
1650;DHT22;822;53.670;8.676;2023-05-20T13:24:50;18.40;56.90
1650;DHT22;822;53.670;8.676;2023-05-20T13:27:18;18.50;56.10
1650;DHT22;822;53.670;8.676;2023-05-20T13:29:45;18.50;56.10
1650;DHT22;822;53.670;8.676;2023-05-20T13:32:12;18.50;55.80
1650;DHT22;822;53.670;8.676;2023-05-20T13:34:39;18.40;55.30
1650;DHT22;822;53.670;8.676;2023-05-20T13:37:06;18.50;56.40
1650;DHT22;822;53.670;8.676;2023-05-20T13:39:35;18.40;57.50
1650;DHT22;822;53.670;8.676;2023-05-20T13:42:02;18.40;56.50
1650;DHT22;822;53.670;8.676;2023-05-20T13:44:30;18.30;56.10
1650;DHT22;822;53.670;8.676;2023-05-20T13:46:57;18.10;55.80
1650;DHT22;822;53.670;8.676;2023-05-20T13:49:24;18.10;56.70
1650;DHT22;822;53.670;8.676;2023-05-20T13:51:51;17.90;57.80
1650;DHT22;822;53.670;8.676;2023-05-20T13:54:21;17.90;58.00
1650;DHT22;822;53.670;8.676;2023-05-20T13:56:50;17.80;59.00
1650;DHT22;822;53.670;8.676;2023-05-20T13:59:17;17.80;59.20
1650;DHT22;822;53.670;8.676;2023-05-20T14:01:44;17.80;58.60
1650;DHT22;822;53.670;8.676;2023-05-20T14:04:11;17.80;58.50
1650;DHT22;822;53.670;8.676;2023-05-20T14:06:42;17.80;59.50
1650;DHT22;822;53.670;8.676;2023-05-20T14:09:09;17.90;59.90
1650;DHT22;822;53.670;8.676;2023-05-20T14:11:36;17.90;58.80
1650;DHT22;822;53.670;8.676;2023-05-20T14:14:04;17.90;58.90
1650;DHT22;822;53.670;8.676;2023-05-20T14:16:31;17.90;59.50
1650;DHT22;822;53.670;8.676;2023-05-20T14:18:58;18.00;60.00
1650;DHT22;822;53.670;8.676;2023-05-20T14:21:26;18.00;59.30
1650;DHT22;822;53.670;8.676;2023-05-20T14:23:53;18.10;58.80
1650;DHT22;822;53.670;8.676;2023-05-20T14:26:20;18.00;58.80
1650;DHT22;822;53.670;8.676;2023-05-20T14:28:47;18.00;58.80
1650;DHT22;822;53.670;8.676;2023-05-20T14:31:16;18.00;58.90
1650;DHT22;822;53.670;8.676;2023-05-20T14:33:43;18.00;59.00
1650;DHT22;822;53.670;8.676;2023-05-20T14:36:10;17.90;58.90
1650;DHT22;822;53.670;8.676;2023-05-20T14:38:37;17.90;59.90
1650;DHT22;822;53.670;8.676;2023-05-20T14:41:04;17.90;59.60
1650;DHT22;822;53.670;8.676;2023-05-20T14:43:31;18.00;59.10
1650;DHT22;822;53.670;8.676;2023-05-20T14:45:59;18.10;59.00
1650;DHT22;822;53.670;8.676;2023-05-20T14:48:27;18.10;58.60
1650;DHT22;822;53.670;8.676;2023-05-20T14:50:55;18.10;58.50
1650;DHT22;822;53.670;8.676;2023-05-20T14:53:22;18.00;59.00
1650;DHT22;822;53.670;8.676;2023-05-20T14:55:49;18.00;59.70
1650;DHT22;822;53.670;8.676;2023-05-20T14:58:16;18.00;61.50
1650;DHT22;822;53.670;8.676;2023-05-20T15:00:43;18.10;61.90
1650;DHT22;822;53.670;8.676;2023-05-20T15:03:10;18.10;59.40
1650;DHT22;822;53.670;8.676;2023-05-20T15:05:39;18.10;60.10
1650;DHT22;822;53.670;8.676;2023-05-20T15:08:07;18.20;60.40
1650;DHT22;822;53.670;8.676;2023-05-20T15:10:34;18.20;61.00
1650;DHT22;822;53.670;8.676;2023-05-20T15:13:01;18.20;59.80
1650;DHT22;822;53.670;8.676;2023-05-20T15:15:28;18.20;59.90
1650;DHT22;822;53.670;8.676;2023-05-20T15:17:55;18.10;60.00
1650;DHT22;822;53.670;8.676;2023-05-20T15:20:22;18.10;60.50
1650;DHT22;822;53.670;8.676;2023-05-20T15:22:51;18.00;60.30
1650;DHT22;822;53.670;8.676;2023-05-20T15:25:18;17.90;60.50
1650;DHT22;822;53.670;8.676;2023-05-20T15:27:45;17.80;61.10
1650;DHT22;822;53.670;8.676;2023-05-20T15:30:13;17.80;61.70
1650;DHT22;822;53.670;8.676;2023-05-20T15:32:40;17.80;61.80
1650;DHT22;822;53.670;8.676;2023-05-20T15:35:08;17.70;62.10
1650;DHT22;822;53.670;8.676;2023-05-20T15:37:36;17.70;61.30
1650;DHT22;822;53.670;8.676;2023-05-20T15:40:05;17.70;61.50
1650;DHT22;822;53.670;8.676;2023-05-20T15:42:33;17.70;62.00
1650;DHT22;822;53.670;8.676;2023-05-20T15:45:00;17.70;61.90
1650;DHT22;822;53.670;8.676;2023-05-20T15:47:27;17.60;61.50
1650;DHT22;822;53.670;8.676;2023-05-20T15:49:55;17.50;62.40
1650;DHT22;822;53.670;8.676;2023-05-20T15:52:22;17.40;63.40
1650;DHT22;822;53.670;8.676;2023-05-20T15:54:49;17.40;63.60
1650;DHT22;822;53.670;8.676;2023-05-20T15:57:18;17.40;64.10
1650;DHT22;822;53.670;8.676;2023-05-20T15:59:45;17.40;63.30
1650;DHT22;822;53.670;8.676;2023-05-20T16:02:12;17.40;63.40
1650;DHT22;822;53.670;8.676;2023-05-20T16:04:40;17.30;63.70
1650;DHT22;822;53.670;8.676;2023-05-20T16:07:07;17.30;64.10
1650;DHT22;822;53.670;8.676;2023-05-20T16:09:36;17.30;64.30
1650;DHT22;822;53.670;8.676;2023-05-20T16:12:05;17.30;64.20
1650;DHT22;822;53.670;8.676;2023-05-20T16:14:33;17.30;64.60
1650;DHT22;822;53.670;8.676;2023-05-20T16:17:01;17.20;64.50
1650;DHT22;822;53.670;8.676;2023-05-20T16:19:28;17.20;64.60
1650;DHT22;822;53.670;8.676;2023-05-20T16:21:55;17.10;65.00
1650;DHT22;822;53.670;8.676;2023-05-20T16:24:22;17.10;64.80
1650;DHT22;822;53.670;8.676;2023-05-20T16:26:49;17.00;65.00